createdAt,value
2022-12-19T00:00:30.999Z,55.00
2022-12-19T00:02:59.076Z,54.88
2022-12-19T00:05:27.096Z,54.67
2022-12-19T00:07:56.342Z,55.13
2022-12-19T00:10:25.689Z,55.41
2022-12-19T00:12:53.434Z,55.29
2022-12-19T00:15:21.221Z,54.92
2022-12-19T00:17:49.012Z,55.25
2022-12-19T00:20:18.512Z,55.70
2022-12-19T00:22:46.534Z,55.37
2022-12-19T00:25:15.843Z,55.86
2022-12-19T00:27:43.858Z,55.98
2022-12-19T00:30:12.951Z,56.07
2022-12-19T00:32:40.679Z,56.24
2022-12-19T00:35:08.785Z,56.67
2022-12-19T00:37:38.423Z,57.09
2022-12-19T00:40:10.639Z,56.81
2022-12-19T00:42:39.773Z,56.47
2022-12-19T00:45:08.289Z,56.67
2022-12-19T00:47:36.182Z,56.87
2022-12-19T00:50:04.493Z,57.42
2022-12-19T00:52:32.258Z,57.82
2022-12-19T00:55:01.725Z,57.30
2022-12-19T00:57:31.298Z,57.67
2022-12-19T01:00:00.515Z,57.56
2022-12-19T01:02:28.488Z,57.83
2022-12-19T01:04:56.233Z,57.92
2022-12-19T01:07:24.082Z,57.84
2022-12-19T01:09:51.815Z,58.32
2022-12-19T01:12:37.262Z,58.04
2022-12-19T01:15:07.443Z,58.45
2022-12-19T01:17:43.821Z,57.80
2022-12-19T01:20:12.808Z,58.12
2022-12-19T01:22:40.843Z,58.48
2022-12-19T01:25:08.972Z,58.24
2022-12-19T01:27:36.773Z,58.31
2022-12-19T01:30:07.375Z,58.98
2022-12-19T01:32:36.050Z,58.97
2022-12-19T01:35:03.919Z,59.25
2022-12-19T01:37:31.775Z,59.83
2022-12-19T01:39:59.587Z,60.57
2022-12-19T01:42:27.230Z,61.16
2022-12-19T01:45:34.570Z,60.91
2022-12-19T01:48:12.277Z,61.25
2022-12-19T01:50:43.297Z,61.06
2022-12-19T01:53:21.292Z,61.79
2022-12-19T01:55:48.999Z,61.95
2022-12-19T01:58:16.889Z,62.38
2022-12-19T02:00:46.157Z,62.85
2022-12-19T02:03:16.194Z,62.65
2022-12-19T02:05:44.160Z,62.38
2022-12-19T02:08:11.893Z,62.23
2022-12-19T02:10:39.671Z,62.15
2022-12-19T02:13:07.335Z,62.90
2022-12-19T02:15:39.341Z,62.92
2022-12-19T02:18:11.171Z,63.01
2022-12-19T02:20:53.323Z,62.56
2022-12-19T02:23:35.063Z,62.70
2022-12-19T02:26:12.005Z,62.24
2022-12-19T02:29:01.776Z,62.99
2022-12-19T02:31:31.730Z,61.94
2022-12-19T02:34:04.370Z,62.33
2022-12-19T02:36:38.685Z,61.91
2022-12-19T02:39:09.277Z,62.21
2022-12-19T02:41:43.302Z,62.46
2022-12-19T02:44:15.847Z,62.45
2022-12-19T02:46:45.284Z,61.82
2022-12-19T02:49:12.993Z,62.15
2022-12-19T02:51:47.105Z,62.16
2022-12-19T02:54:14.831Z,61.89
2022-12-19T02:56:46.365Z,61.67
2022-12-19T02:59:24.675Z,61.72
2022-12-19T03:01:54.876Z,60.79
2022-12-19T03:04:29.855Z,60.56
2022-12-19T03:07:02.118Z,60.38
2022-12-19T03:09:33.638Z,60.27
2022-12-19T03:12:03.862Z,60.04
2022-12-19T03:14:31.709Z,60.08
2022-12-19T03:17:05.683Z,60.46
2022-12-19T03:19:34.168Z,59.87
2022-12-19T03:22:01.985Z,59.35
2022-12-19T03:24:29.703Z,59.39
2022-12-19T03:26:58.757Z,59.72
2022-12-19T03:29:28.460Z,59.78
2022-12-19T03:31:56.567Z,59.91
2022-12-19T03:34:27.170Z,59.65
2022-12-19T03:36:56.573Z,60.01
2022-12-19T03:39:24.892Z,59.71
2022-12-19T03:42:10.155Z,59.98
2022-12-19T03:44:40.636Z,60.44
2022-12-19T03:47:11.210Z,60.82
2022-12-19T03:49:40.423Z,60.27
2022-12-19T03:52:12.936Z,61.02
2022-12-19T03:54:41.601Z,61.20
2022-12-19T03:57:10.972Z,61.61
2022-12-19T03:59:41.184Z,61.90
2022-12-19T04:02:09.216Z,61.88
2022-12-19T04:04:38.095Z,62.79
2022-12-19T04:07:07.175Z,62.12
2022-12-19T04:09:34.963Z,62.79
2022-12-19T04:12:04.478Z,62.29
2022-12-19T04:14:33.376Z,62.26
2022-12-19T04:17:05.641Z,61.98
2022-12-19T04:19:41.073Z,62.97
2022-12-19T04:22:13.161Z,63.12
2022-12-19T04:24:41.671Z,63.52
2022-12-19T04:27:09.603Z,63.40
2022-12-19T04:29:38.015Z,63.23
2022-12-19T04:32:06.368Z,62.96
2022-12-19T04:34:36.802Z,63.33
2022-12-19T04:37:06.710Z,63.42
2022-12-19T04:39:35.780Z,62.69
2022-12-19T04:42:03.443Z,63.24
2022-12-19T04:44:31.184Z,63.10
2022-12-19T04:46:58.879Z,63.43
2022-12-19T04:49:26.770Z,62.94
2022-12-19T04:51:54.588Z,63.37
2022-12-19T04:54:22.836Z,62.74
2022-12-19T04:56:51.903Z,63.15
2022-12-19T04:59:19.594Z,63.45
2022-12-19T05:01:47.305Z,62.77
2022-12-19T05:04:15.087Z,63.17
2022-12-19T05:06:42.751Z,63.65
2022-12-19T05:09:11.277Z,63.29
2022-12-19T05:11:39.196Z,63.80
2022-12-19T05:14:09.358Z,63.92
2022-12-19T05:16:37.345Z,63.75
2022-12-19T05:19:08.264Z,63.62
2022-12-19T05:21:35.977Z,63.41
2022-12-19T05:24:41.837Z,63.64
2022-12-19T05:27:09.655Z,63.68
2022-12-19T05:29:39.048Z,63.97
2022-12-19T05:32:07.055Z,64.40
2022-12-19T05:34:34.913Z,64.23
2022-12-19T05:37:03.541Z,64.10
2022-12-19T05:39:35.018Z,64.68
2022-12-19T05:42:02.731Z,64.33
2022-12-19T05:44:30.584Z,63.84
2022-12-19T05:47:00.858Z,64.98
2022-12-19T05:49:28.655Z,64.64
2022-12-19T05:51:56.384Z,64.64
2022-12-19T05:54:24.255Z,64.20
2022-12-19T05:56:51.949Z,64.32
2022-12-19T05:59:19.637Z,64.17
2022-12-19T06:01:47.633Z,63.98
2022-12-19T06:04:17.129Z,63.65
2022-12-19T06:06:45.620Z,64.24
2022-12-19T06:09:13.567Z,64.14
2022-12-19T06:11:41.499Z,63.73
2022-12-19T06:14:09.477Z,63.74
2022-12-19T06:16:37.326Z,63.47
2022-12-19T06:19:05.264Z,63.88
2022-12-19T06:21:34.699Z,63.50
2022-12-19T06:24:02.585Z,63.88
2022-12-19T06:26:31.162Z,63.92
2022-12-19T06:28:58.996Z,64.14
2022-12-19T06:31:26.932Z,64.31
2022-12-19T06:33:55.791Z,64.36
2022-12-19T06:36:24.323Z,64.23
2022-12-19T06:39:00.741Z,63.79
2022-12-19T06:41:45.978Z,64.35
2022-12-19T06:44:27.103Z,64.71
2022-12-19T06:46:55.007Z,64.21
2022-12-19T06:49:23.135Z,64.24
2022-12-19T06:51:51.127Z,64.29
2022-12-19T06:54:20.385Z,64.27
2022-12-19T06:56:48.334Z,64.30
2022-12-19T06:59:17.040Z,64.19
2022-12-19T07:01:52.598Z,63.98
2022-12-19T07:04:23.895Z,63.81
2022-12-19T07:06:51.904Z,64.13
2022-12-19T07:09:22.223Z,63.65
2022-12-19T07:11:50.052Z,63.64
2022-12-19T07:14:19.033Z,63.75
2022-12-19T07:16:47.861Z,63.91
2022-12-19T07:19:16.024Z,63.45
2022-12-19T07:21:44.209Z,63.75
2022-12-19T07:24:12.491Z,63.62
2022-12-19T07:26:42.211Z,63.22
2022-12-19T07:29:10.292Z,63.57
2022-12-19T07:31:38.987Z,63.97
2022-12-19T07:34:07.540Z,64.74
2022-12-19T07:36:36.069Z,64.19
2022-12-19T07:39:10.601Z,64.24
2022-12-19T07:41:38.652Z,64.50
2022-12-19T07:44:08.715Z,65.13
2022-12-19T07:46:36.835Z,64.74
2022-12-19T07:49:04.584Z,64.93
2022-12-19T07:51:32.550Z,64.52
2022-12-19T07:54:00.426Z,64.50
2022-12-19T07:56:29.130Z,64.21
2022-12-19T07:58:57.325Z,64.75
2022-12-19T08:01:38.301Z,64.78
2022-12-19T08:04:06.473Z,65.11
2022-12-19T08:06:40.585Z,64.70
2022-12-19T08:09:11.256Z,65.06
2022-12-19T08:11:39.660Z,64.64
2022-12-19T08:14:08.018Z,64.55
2022-12-19T08:17:03.203Z,64.58
2022-12-19T08:19:30.831Z,64.60
2022-12-19T08:21:59.498Z,64.72
2022-12-19T08:24:28.016Z,64.95
2022-12-19T08:26:55.931Z,64.17
2022-12-19T08:29:40.704Z,64.13
2022-12-19T08:32:11.579Z,64.15
2022-12-19T08:34:45.173Z,63.90
2022-12-19T08:37:13.727Z,63.70
2022-12-19T08:39:47.285Z,64.18
2022-12-19T08:42:28.751Z,64.37
2022-12-19T08:44:56.580Z,64.58
2022-12-19T08:47:25.779Z,64.63
2022-12-19T08:49:53.458Z,64.27
2022-12-19T08:52:27.930Z,64.11
2022-12-19T08:54:55.500Z,63.65
2022-12-19T08:57:23.236Z,64.03
2022-12-19T08:59:50.816Z,63.72
2022-12-19T09:02:19.836Z,64.39
2022-12-19T09:06:00.383Z,63.57
2022-12-19T09:07:38.627Z,64.62
2022-12-19T09:10:07.842Z,64.46
2022-12-19T09:12:35.561Z,64.51
2022-12-19T09:15:03.163Z,64.66
2022-12-19T09:17:35.138Z,64.65
2022-12-19T09:20:04.463Z,64.76
2022-12-19T09:22:32.305Z,64.41
2022-12-19T09:25:00.021Z,64.25
2022-12-19T09:27:27.881Z,64.99
2022-12-19T09:29:55.559Z,64.00
2022-12-19T09:32:23.347Z,63.37
2022-12-19T09:34:50.903Z,64.20
2022-12-19T09:37:20.144Z,63.54
2022-12-19T09:39:47.847Z,63.79
2022-12-19T09:42:41.606Z,64.03
2022-12-19T09:45:33.698Z,62.97
2022-12-19T09:48:01.971Z,64.10
2022-12-19T09:50:37.140Z,63.74
2022-12-19T09:53:08.401Z,63.83
2022-12-19T09:55:37.400Z,64.06
2022-12-19T09:58:09.029Z,63.36
2022-12-19T10:00:38.351Z,62.94
2022-12-19T10:03:13.201Z,62.81
2022-12-19T10:06:34.564Z,62.63
2022-12-19T10:08:32.647Z,62.58
2022-12-19T10:12:40.012Z,62.16
2022-12-19T10:14:15.424Z,62.13
2022-12-19T10:17:08.880Z,62.28
2022-12-19T10:19:43.578Z,62.31
2022-12-19T10:22:19.820Z,63.12
2022-12-19T10:25:09.661Z,62.31
2022-12-19T10:27:57.237Z,61.98
2022-12-19T10:30:29.041Z,62.24
2022-12-19T10:33:03.987Z,61.63
2022-12-19T10:35:35.547Z,62.27
2022-12-19T10:38:13.425Z,61.36
2022-12-19T10:40:44.115Z,61.93
2022-12-19T10:43:19.142Z,61.32
2022-12-19T10:45:55.259Z,61.00
2022-12-19T10:48:30.383Z,61.02
2022-12-19T10:51:05.183Z,60.24
2022-12-19T10:53:34.766Z,59.41
2022-12-19T10:56:04.489Z,60.31
2022-12-19T10:58:34.341Z,60.00
2022-12-19T11:01:07.129Z,60.29
2022-12-19T11:03:35.193Z,59.79
2022-12-19T11:06:03.572Z,59.97
2022-12-19T11:08:31.840Z,59.43
2022-12-19T11:12:25.651Z,58.47
2022-12-19T11:20:33.705Z,59.27
2022-12-19T11:22:27.460Z,59.26
2022-12-19T11:27:41.073Z,59.29
2022-12-19T11:29:37.687Z,58.96
2022-12-19T11:30:09.081Z,59.51
2022-12-19T11:30:49.021Z,59.11
2022-12-19T11:33:54.751Z,58.78
2022-12-19T11:36:30.161Z,58.36
2022-12-19T11:38:57.767Z,59.08
2022-12-19T11:41:30.498Z,58.36
2022-12-19T11:44:02.013Z,58.67
2022-12-19T11:46:37.284Z,57.85
2022-12-19T11:49:06.859Z,57.90
2022-12-19T11:51:39.945Z,57.52
2022-12-19T11:54:11.172Z,57.97
2022-12-19T11:56:40.257Z,57.29
2022-12-19T11:59:14.064Z,57.07
2022-12-19T12:01:55.393Z,57.24
2022-12-19T12:04:56.832Z,56.62
2022-12-19T12:08:02.687Z,56.89
2022-12-19T12:17:11.837Z,57.29
2022-12-19T12:21:17.190Z,57.59
2022-12-19T12:25:44.511Z,57.23
2022-12-19T12:31:05.749Z,57.10
2022-12-19T12:31:39.253Z,57.65
2022-12-19T12:31:41.323Z,56.63
2022-12-19T12:31:51.875Z,56.87
2022-12-19T12:31:52.363Z,57.51
2022-12-19T12:35:36.476Z,56.57
2022-12-19T12:39:24.313Z,56.40
2022-12-19T12:42:06.252Z,56.68
2022-12-19T12:44:41.134Z,56.09
2022-12-19T12:47:17.004Z,55.50
2022-12-19T12:49:46.950Z,56.13
2022-12-19T12:52:16.269Z,55.24
2022-12-19T12:54:47.031Z,55.19
2022-12-19T12:57:34.741Z,55.04
2022-12-19T13:00:35.851Z,54.53
2022-12-19T13:03:05.381Z,54.90
2022-12-19T13:05:53.670Z,53.92
2022-12-19T13:08:46.613Z,54.46
2022-12-19T13:11:36.002Z,53.57
2022-12-19T13:14:03.759Z,54.17
2022-12-19T13:16:53.010Z,54.29
2022-12-19T13:19:27.914Z,54.57
2022-12-19T13:22:19.217Z,53.64
2022-12-19T13:24:47.529Z,54.29
2022-12-19T13:27:33.922Z,54.23
2022-12-19T13:30:29.078Z,53.81
2022-12-19T13:33:11.076Z,53.99
2022-12-19T13:36:56.619Z,53.91
2022-12-19T13:40:01.199Z,53.94
2022-12-19T13:41:47.036Z,54.39
2022-12-19T13:44:14.806Z,54.09
2022-12-19T13:46:43.124Z,53.89
2022-12-19T13:49:13.124Z,54.17
2022-12-19T13:51:46.934Z,54.29
2022-12-19T13:54:23.809Z,54.29
2022-12-19T13:56:52.077Z,53.94
2022-12-19T13:59:20.149Z,54.61
2022-12-19T14:01:48.167Z,53.87
2022-12-19T14:04:27.331Z,54.03
2022-12-19T14:06:58.495Z,53.86
2022-12-19T14:11:28.094Z,53.69
2022-12-19T14:13:55.601Z,54.97
2022-12-19T14:15:32.196Z,54.99
2022-12-19T14:18:43.212Z,54.95
2022-12-19T14:22:09.845Z,54.74
2022-12-19T14:23:43.319Z,54.92
2022-12-19T14:28:25.081Z,54.71
2022-12-19T14:29:04.618Z,54.77
2022-12-19T14:31:33.117Z,54.60
2022-12-19T14:36:49.534Z,55.44
2022-12-19T14:39:24.218Z,55.12
2022-12-19T14:43:38.959Z,55.40
2022-12-19T14:53:17.581Z,55.46
2022-12-19T14:54:09.037Z,55.73
2022-12-19T14:54:35.863Z,55.13
2022-12-19T14:57:29.142Z,55.04
2022-12-19T15:00:51.557Z,55.03
2022-12-19T15:03:16.936Z,54.80
2022-12-19T15:05:45.476Z,55.25
2022-12-19T15:08:13.766Z,55.20
2022-12-19T15:11:04.924Z,55.02
2022-12-19T15:14:48.563Z,55.41
2022-12-19T15:16:25.591Z,54.66
2022-12-19T15:18:58.700Z,54.82
2022-12-19T15:21:26.560Z,54.89
2022-12-19T15:23:54.239Z,54.36
2022-12-19T15:26:28.467Z,54.43
2022-12-19T15:29:00.858Z,54.67
2022-12-19T15:31:32.363Z,54.36
2022-12-19T15:34:33.691Z,55.35
2022-12-19T15:36:47.923Z,54.46
2022-12-19T15:39:16.035Z,54.32
2022-12-19T15:41:44.024Z,55.30
2022-12-19T15:44:17.561Z,55.46
2022-12-19T15:46:49.067Z,55.08
2022-12-19T15:49:17.879Z,55.28
2022-12-19T15:51:45.743Z,54.54
2022-12-19T15:57:01.356Z,55.01
2022-12-19T15:59:38.038Z,54.22
2022-12-19T16:02:15.800Z,55.23
2022-12-19T16:04:43.987Z,54.55
2022-12-19T16:07:15.338Z,54.39
2022-12-19T16:09:42.988Z,55.13
2022-12-19T16:12:11.813Z,54.97
2022-12-19T16:14:40.871Z,54.41
2022-12-19T16:17:12.190Z,54.37
2022-12-19T16:19:41.185Z,54.34
2022-12-19T16:22:15.931Z,54.36
2022-12-19T16:24:43.923Z,54.60
2022-12-19T16:27:11.666Z,54.22
2022-12-19T16:29:41.969Z,54.53
2022-12-19T16:32:11.230Z,53.44
2022-12-19T16:34:38.876Z,53.95
2022-12-19T16:37:07.798Z,53.62
2022-12-19T16:39:35.459Z,54.29
2022-12-19T16:42:04.306Z,53.35
2022-12-19T16:44:32.610Z,53.43
2022-12-19T16:47:01.863Z,53.81
2022-12-19T16:49:29.600Z,53.95
2022-12-19T16:51:57.261Z,53.08
2022-12-19T16:54:24.994Z,53.20
2022-12-19T16:56:53.672Z,53.42
2022-12-19T16:59:22.153Z,52.92
2022-12-19T17:01:51.111Z,53.25
2022-12-19T17:04:21.492Z,53.55
2022-12-19T17:06:49.785Z,53.34
2022-12-19T17:09:18.229Z,53.11
2022-12-19T17:11:46.772Z,53.35
2022-12-19T17:14:16.770Z,53.45
2022-12-19T17:16:44.730Z,53.22
2022-12-19T17:19:12.821Z,53.59
2022-12-19T17:21:41.882Z,53.05
2022-12-19T17:24:12.051Z,53.19
2022-12-19T17:26:39.718Z,53.42
2022-12-19T17:29:07.391Z,53.29
2022-12-19T17:31:38.192Z,53.20
2022-12-19T17:34:08.131Z,53.25
2022-12-19T17:36:37.918Z,53.20
2022-12-19T17:39:15.748Z,53.26
2022-12-19T17:41:43.464Z,52.93
2022-12-19T17:44:11.561Z,53.21
2022-12-19T17:46:39.173Z,53.16
2022-12-19T17:49:06.946Z,52.89
2022-12-19T17:51:34.538Z,52.95
2022-12-19T17:54:02.153Z,52.98
2022-12-19T17:56:31.214Z,52.82
2022-12-19T17:58:58.797Z,52.64
2022-12-19T18:01:26.625Z,52.84
2022-12-19T18:03:56.064Z,52.88
2022-12-19T18:06:23.648Z,52.97
2022-12-19T18:08:51.407Z,52.83
2022-12-19T18:11:20.568Z,52.48
2022-12-19T18:13:50.764Z,52.81
2022-12-19T18:16:19.648Z,52.41
2022-12-19T18:18:47.583Z,52.90
2022-12-19T18:21:19.719Z,52.64
2022-12-19T18:23:47.592Z,52.71
2022-12-19T18:26:15.288Z,52.96
2022-12-19T18:28:43.280Z,52.76
2022-12-19T18:31:14.979Z,52.90
2022-12-19T18:33:45.348Z,52.74
2022-12-19T18:36:17.764Z,52.93
2022-12-19T18:38:45.517Z,53.06
2022-12-19T18:41:13.449Z,52.86
2022-12-19T18:43:41.181Z,53.33
2022-12-19T18:46:14.594Z,52.80
2022-12-19T18:48:42.540Z,52.76
2022-12-19T18:51:14.217Z,52.74
2022-12-19T18:53:42.011Z,52.73
2022-12-19T18:56:09.848Z,52.78
2022-12-19T18:58:37.656Z,52.62
2022-12-19T19:01:06.395Z,53.16
2022-12-19T19:03:36.433Z,52.95
2022-12-19T19:06:05.374Z,52.85
2022-12-19T19:08:33.981Z,53.16
2022-12-19T19:11:01.707Z,52.97
2022-12-19T19:13:29.426Z,53.05
2022-12-19T19:15:58.720Z,52.36
2022-12-19T19:18:29.812Z,52.94
2022-12-19T19:21:01.205Z,52.87
2022-12-19T19:23:30.693Z,53.07
2022-12-19T19:25:58.466Z,52.96
2022-12-19T19:28:26.202Z,53.09
2022-12-19T19:30:54.619Z,53.12
2022-12-19T19:33:23.587Z,53.26
2022-12-19T19:35:51.910Z,52.86
2022-12-19T19:38:20.958Z,53.43
2022-12-19T19:40:48.817Z,53.19
2022-12-19T19:43:16.521Z,53.53
2022-12-19T19:45:44.190Z,53.28
2022-12-19T19:48:12.002Z,53.19
2022-12-19T19:50:39.691Z,53.38
2022-12-19T19:53:07.402Z,53.39
2022-12-19T19:55:36.615Z,53.38
2022-12-19T19:58:04.202Z,53.41
2022-12-19T20:00:31.886Z,53.30
2022-12-19T20:03:03.641Z,53.41
2022-12-19T20:05:34.099Z,53.26
2022-12-19T20:08:01.830Z,53.60
2022-12-19T20:10:29.663Z,53.43
2022-12-19T20:12:58.759Z,53.64
2022-12-19T20:15:26.502Z,53.51
2022-12-19T20:17:57.806Z,53.51
2022-12-19T20:20:25.503Z,53.56
2022-12-19T20:22:53.272Z,53.24
2022-12-19T20:25:20.899Z,53.29
2022-12-19T20:27:48.464Z,53.17
2022-12-19T20:30:21.054Z,53.39
2022-12-19T20:32:48.804Z,53.11
2022-12-19T20:35:17.042Z,53.33
2022-12-19T20:37:44.858Z,53.82
2022-12-19T20:40:12.999Z,53.14
2022-12-19T20:42:40.689Z,53.26
2022-12-19T20:45:09.110Z,53.35
2022-12-19T20:47:38.013Z,53.25
2022-12-19T20:50:07.519Z,53.47
2022-12-19T20:52:36.847Z,53.23
2022-12-19T20:55:04.769Z,53.05
2022-12-19T20:57:32.445Z,53.14
2022-12-19T21:00:00.197Z,53.19
2022-12-19T21:02:28.194Z,53.30
2022-12-19T21:04:57.314Z,53.36
2022-12-19T21:07:25.408Z,53.34
2022-12-19T21:09:54.110Z,53.35
2022-12-19T21:12:24.108Z,53.05
2022-12-19T21:14:51.833Z,53.65
2022-12-19T21:17:19.657Z,53.75
2022-12-19T21:19:47.369Z,53.38
2022-12-19T21:24:44.255Z,53.79
2022-12-19T21:27:11.917Z,54.19
2022-12-19T21:29:39.608Z,54.37
2022-12-19T21:32:09.131Z,54.95
2022-12-19T21:34:39.211Z,55.82
2022-12-19T21:37:06.846Z,55.21
2022-12-19T21:39:34.611Z,55.45
2022-12-19T21:42:03.639Z,55.73
2022-12-19T21:44:31.485Z,55.67
2022-12-19T21:46:59.223Z,55.69
2022-12-19T21:49:27.087Z,55.68
2022-12-19T21:51:54.747Z,55.68
2022-12-19T21:54:22.586Z,55.72
2022-12-19T21:56:50.358Z,55.79
2022-12-19T21:59:19.419Z,55.77
2022-12-19T22:01:47.268Z,55.51
2022-12-19T22:04:17.613Z,55.49
2022-12-19T22:06:45.349Z,55.63
2022-12-19T22:09:14.085Z,55.53
2022-12-19T22:11:43.007Z,55.44
2022-12-19T22:14:12.268Z,55.86
2022-12-19T22:16:41.340Z,55.58
2022-12-19T22:19:09.073Z,55.72
2022-12-19T22:21:36.931Z,55.58
2022-12-19T22:24:04.751Z,55.72
2022-12-19T22:26:32.701Z,55.38
2022-12-19T22:29:00.436Z,55.30
2022-12-19T22:31:29.777Z,55.75
2022-12-19T22:34:00.126Z,55.11
2022-12-19T22:36:31.486Z,55.41
2022-12-19T22:38:59.960Z,55.42
2022-12-19T22:41:27.778Z,55.25
2022-12-19T22:43:55.587Z,55.54
2022-12-19T22:46:26.112Z,55.52
2022-12-19T22:48:54.104Z,54.75
2022-12-19T22:51:23.243Z,54.85
2022-12-19T22:53:50.873Z,55.50
2022-12-19T22:56:19.666Z,55.39
2022-12-19T22:58:48.843Z,55.39
2022-12-19T23:01:17.547Z,54.86
2022-12-19T23:03:45.859Z,55.07
2022-12-19T23:06:13.876Z,54.85
2022-12-19T23:08:42.910Z,54.81
2022-12-19T23:11:11.863Z,54.92
2022-12-19T23:13:39.581Z,54.59
2022-12-19T23:16:07.736Z,54.91
2022-12-19T23:18:35.350Z,54.66
2022-12-19T23:21:04.274Z,54.95
2022-12-19T23:23:39.327Z,55.25
2022-12-19T23:26:15.164Z,54.91
2022-12-19T23:28:43.384Z,55.00
2022-12-19T23:31:12.060Z,54.93
2022-12-19T23:33:39.647Z,54.82
2022-12-19T23:36:07.641Z,54.71
2022-12-19T23:38:35.220Z,54.82
2022-12-19T23:41:03.288Z,54.41
2022-12-19T23:43:32.474Z,54.40
2022-12-19T23:46:00.246Z,54.18
2022-12-19T23:48:28.349Z,54.67
2022-12-19T23:51:00.454Z,54.66
2022-12-19T23:53:28.323Z,54.58
2022-12-19T23:55:55.915Z,54.06
2022-12-19T23:58:24.893Z,54.00
